Time;durP1;ratioP1;P1;durP2;ratioP2;P2;SDS_P1;SDS_P2;PMS_P1;PMS_P2;Temp;Humidity;BMP_temperature;BMP_pressure;BME280_temperature;BME280_humidity;BME280_pressure;Samples;Min_cycle;Max_cycle;Signal;HPM_P1;HPM_P2
2022/02/13 00:02:16;;;;;;;;;;;;;;;-0.67;67.85;97064.41;4979629;28;19963;-77
2022/02/13 00:04:42;;;;;;;;;;;;;;;-0.69;67.46;97065.47;4986199;28;20012;-77
2022/02/13 00:07:08;;;;;;;;;;;;;;;-0.68;67.03;97059.38;4986101;28;19959;-77
2022/02/13 00:09:34;;;;;;;;;;;;;;;-0.69;66.87;97057.75;4984475;28;19961;-77
2022/02/13 00:12:02;;;;;;;;;;;;;;;-0.69;66.99;97055.19;4981741;28;20452;-77
2022/02/13 00:14:28;;;;;;;;;;;;;;;-0.67;67.14;97061.00;4982572;28;19965;-77
2022/02/13 00:16:54;;;;;;;;;;;;;;;-0.66;67.67;97049.75;4988314;28;20331;-76
2022/02/13 00:19:20;;;;;;;;;;;;;;;-0.64;68.10;97047.84;4980289;28;19956;-77
2022/02/13 00:21:46;;;;;;;;;;;;;;;-0.64;67.82;97050.44;4984834;28;19961;-77
2022/02/13 00:24:12;;;;;;;;;;;;;;;-0.67;69.19;97054.09;4984779;28;19997;-77
2022/02/13 00:26:38;;;;;;;;;;;;;;;-0.68;67.22;97049.88;4986875;28;19957;-77
2022/02/13 00:29:04;;;;;;;;;;;;;;;-0.68;67.18;97047.31;4978697;28;19959;-76
2022/02/13 00:31:30;;;;;;;;;;;;;;;-0.66;67.52;97042.84;4987563;28;19960;-77
2022/02/13 00:33:56;;;;;;;;;;;;;;;-0.64;67.44;97045.28;4983580;28;20419;-76
2022/02/13 00:36:22;;;;;;;;;;;;;;;-0.65;67.73;97049.63;4980819;28;19986;-77
2022/02/13 00:38:48;;;;;;;;;;;;;;;-0.65;67.62;97038.50;4983410;28;20322;-77
2022/02/13 00:41:13;;;;;;;;;;;;;;;-0.67;67.96;97043.78;4982133;28;19959;-76
2022/02/13 00:43:39;;;;;;;;;;;;;;;-0.67;67.76;97041.22;4985123;28;19957;-77
2022/02/13 00:46:05;;;;;;;;;;;;;;;-0.68;67.82;97033.63;4986688;28;19956;-77
2022/02/13 00:48:31;;;;;;;;;;;;;;;-0.66;67.28;97034.31;4981575;28;19955;-77
2022/02/13 00:50:57;;;;;;;;;;;;;;;-0.68;67.03;97029.28;4981193;28;19962;-76
2022/02/13 00:53:23;;;;;;;;;;;;;;;-0.69;67.11;97027.66;4988050;28;20306;-77
2022/02/13 00:55:49;;;;;;;;;;;;;;;-0.71;67.65;97037.28;4986886;28;19982;-77
2022/02/13 00:58:15;;;;;;;;;;;;;;;-0.72;67.09;97030.47;4981754;28;19960;-76
2022/02/13 01:00:41;;;;;;;;;;;;;;;-0.73;67.11;97035.78;4984639;28;20446;-77
2022/02/13 01:03:07;;;;;;;;;;;;;;;-0.73;67.07;97028.06;4984541;28;20041;-77
2022/02/13 01:05:33;;;;;;;;;;;;;;;-0.74;69.32;97037.53;4988103;28;19966;-77
2022/02/13 01:07:58;;;;;;;;;;;;;;;-0.76;68.03;97030.88;4978835;28;19985;-77
2022/02/13 01:10:24;;;;;;;;;;;;;;;-0.77;67.72;97032.66;4983338;28;19997;-78
2022/02/13 01:12:50;;;;;;;;;;;;;;;-0.78;67.50;97025.06;4965884;28;19984;-77
2022/02/13 01:15:16;;;;;;;;;;;;;;;-0.79;67.50;97026.00;4988265;28;19992;-77
2022/02/13 01:17:43;;;;;;;;;;;;;;;-0.82;67.49;97020.19;4977866;28;19953;-77
2022/02/13 01:20:09;;;;;;;;;;;;;;;-0.83;67.31;97022.88;4966445;28;19956;-77
2022/02/13 01:22:34;;;;;;;;;;;;;;;-0.84;67.69;97018.66;4983919;28;19986;-76
2022/02/13 01:25:02;;;;;;;;;;;;;;;-0.86;67.89;97023.97;4984404;28;20424;-77
2022/02/13 01:27:28;;;;;;;;;;;;;;;-0.86;67.67;97021.38;4978428;28;20415;-77
2022/02/13 01:29:54;;;;;;;;;;;;;;;-0.87;67.75;97024.91;4972292;28;19983;-77
2022/02/13 01:32:20;;;;;;;;;;;;;;;-0.87;68.04;97031.81;4970612;28;19977;-77
2022/02/13 01:34:46;;;;;;;;;;;;;;;-0.88;68.25;97022.47;4987047;28;19953;-77
2022/02/13 01:37:12;;;;;;;;;;;;;;;-0.91;68.25;97023.53;4988536;28;20006;-77
2022/02/13 01:39:38;;;;;;;;;;;;;;;-0.91;68.45;97026.09;4989389;28;20009;-77
2022/02/13 01:42:04;;;;;;;;;;;;;;;-0.92;68.05;97014.19;4982581;28;19959;-77
2022/02/13 01:44:34;;;;;;;;;;;;;;;-0.92;68.14;97015.97;4969474;28;20003;-77
2022/02/13 01:47:01;;;;;;;;;;;;;;;-0.92;67.91;97015.97;4985306;28;19961;-76
2022/02/13 01:49:27;;;;;;;;;;;;;;;-0.93;68.20;97019.47;4990193;28;20328;-77
2022/02/13 01:51:54;;;;;;;;;;;;;;;-0.94;67.83;97020.41;4985901;28;19951;-77
2022/02/13 01:54:20;;;;;;;;;;;;;;;-0.97;67.66;97013.75;4986738;28;19984;-77
2022/02/13 01:56:46;;;;;;;;;;;;;;;-0.97;68.27;97015.53;4986793;28;19966;-77
2022/02/13 01:59:12;;;;;;;;;;;;;;;-0.99;68.17;97009.69;4986072;28;20394;-77
2022/02/13 02:01:39;;;;;;;;;;;;;;;-1.00;68.33;97008.88;4987215;28;19956;-77
2022/02/13 02:04:05;;;;;;;;;;;;;;;-1.00;67.99;97003.72;4981184;28;19950;-77
2022/02/13 02:06:30;;;;;;;;;;;;;;;-1.01;68.09;96999.50;4989994;28;19953;-77
2022/02/13 02:08:56;;;;;;;;;;;;;;;-1.05;68.15;97001.56;4987712;28;19958;-77
2022/02/13 02:11:23;;;;;;;;;;;;;;;-1.05;68.27;97001.56;4982538;28;20409;-77
2022/02/13 02:13:49;;;;;;;;;;;;;;;-1.06;68.34;97001.69;4987317;28;19986;-77
2022/02/13 02:16:15;;;;;;;;;;;;;;;-1.09;68.93;97005.34;4992111;28;19952;-77
2022/02/13 02:18:40;;;;;;;;;;;;;;;-1.10;68.68;97006.28;4968174;28;19962;-76
2022/02/13 02:21:08;;;;;;;;;;;;;;;-1.11;68.31;97004.66;4980025;28;19969;-77
2022/02/13 02:23:35;;;;;;;;;;;;;;;-1.11;68.64;97006.41;4986193;28;19958;-77
2022/02/13 02:26:01;;;;;;;;;;;;;;;-1.12;68.09;97003.00;4986579;28;20346;-77
2022/02/13 02:28:27;;;;;;;;;;;;;;;-1.12;68.75;97003.00;4991216;28;19963;-77
2022/02/13 02:30:53;;;;;;;;;;;;;;;-1.12;68.58;96999.63;4983087;28;20437;-77
2022/02/13 02:33:21;;;;;;;;;;;;;;;-1.12;68.47;96997.88;4979477;28;19969;-77
2022/02/13 02:35:47;;;;;;;;;;;;;;;-1.13;69.23;97003.97;4984156;28;20445;-76
2022/02/13 02:38:14;;;;;;;;;;;;;;;-1.14;69.79;97002.31;4982924;28;19955;-77
2022/02/13 02:40:40;;;;;;;;;;;;;;;-1.15;69.70;96997.34;4989143;28;20438;-77
2022/02/13 02:43:06;;;;;;;;;;;;;;;-1.17;69.77;96994.88;4982512;28;20340;-77
2022/02/13 02:45:32;;;;;;;;;;;;;;;-1.20;69.89;96989.97;4985907;28;19959;-77
2022/02/13 02:47:58;;;;;;;;;;;;;;;-1.17;69.67;96988.94;4989306;28;19973;-77
2022/02/13 02:50:24;;;;;;;;;;;;;;;-1.21;68.90;96969.53;4987130;28;19962;-77
2022/02/13 02:52:50;;;;;;;;;;;;;;;-1.27;70.14;96989.69;4978655;28;20324;-77
2022/02/13 02:55:16;;;;;;;;;;;;;;;-1.30;69.53;96974.53;4986806;28;19977;-77
2022/02/13 02:57:43;;;;;;;;;;;;;;;-1.30;70.14;96978.84;4988222;28;19957;-77
2022/02/13 03:00:09;;;;;;;;;;;;;;;-1.34;70.43;96983.44;4983153;28;19956;-77
2022/02/13 03:02:35;;;;;;;;;;;;;;;-1.34;70.95;96974.91;4981788;28;19951;-77
2022/02/13 03:05:01;;;;;;;;;;;;;;;-1.33;73.60;96977.34;4991801;28;19958;-78
2022/02/13 03:07:27;;;;;;;;;;;;;;;-1.26;74.07;96970.75;4981083;28;19956;-77
2022/02/13 03:09:53;;;;;;;;;;;;;;;-1.20;71.88;96955.72;4984141;28;20038;-77
2022/02/13 03:12:18;;;;;;;;;;;;;;;-1.18;72.09;96957.22;4988747;28;19990;-77
2022/02/13 03:14:44;;;;;;;;;;;;;;;-1.19;71.57;96958.16;4985136;28;19967;-77
2022/02/13 03:17:10;;;;;;;;;;;;;;;-1.22;71.29;96950.69;4982601;28;20016;-77
2022/02/13 03:19:36;;;;;;;;;;;;;;;-1.22;70.57;96940.41;4987619;28;19999;-77
2022/02/13 03:22:03;;;;;;;;;;;;;;;-1.21;71.08;96951.53;4986887;28;19956;-77
2022/02/13 03:24:29;;;;;;;;;;;;;;;-1.21;71.74;96948.97;4988007;28;19958;-77
2022/02/13 03:26:55;;;;;;;;;;;;;;;-1.21;72.21;96952.34;4978695;28;19962;-77
2022/02/13 03:29:21;;;;;;;;;;;;;;;-1.17;71.72;96945.97;4983953;28;20402;-77
2022/02/13 03:31:47;;;;;;;;;;;;;;;-1.15;71.13;96941.50;4990071;28;20007;-77
2022/02/13 03:34:13;;;;;;;;;;;;;;;-1.13;71.87;96946.53;4985429;28;19977;-77
2022/02/13 03:36:38;;;;;;;;;;;;;;;-1.13;71.59;96941.38;4980992;28;19955;-77
2022/02/13 03:39:05;;;;;;;;;;;;;;;-1.14;72.42;96950.84;4984342;28;20079;-77
2022/02/13 03:41:31;;;;;;;;;;;;;;;-1.14;70.44;96937.97;4990557;28;19964;-77
2022/02/13 03:43:57;;;;;;;;;;;;;;;-1.14;72.18;96943.13;4979180;28;19968;-77
2022/02/13 03:46:23;;;;;;;;;;;;;;;-1.14;71.31;96926.88;4983266;28;19962;-77
2022/02/13 03:48:49;;;;;;;;;;;;;;;-1.14;71.16;96924.31;4972004;28;19961;-77
2022/02/13 03:51:15;;;;;;;;;;;;;;;-1.13;71.03;96923.38;4966973;28;19969;-77
2022/02/13 03:53:41;;;;;;;;;;;;;;;-1.13;70.14;96924.19;4984614;28;19996;-77
2022/02/13 03:56:07;;;;;;;;;;;;;;;-1.13;71.50;96937.06;4982755;28;20038;-78
2022/02/13 03:58:33;;;;;;;;;;;;;;;-1.12;70.88;96925.00;4989379;28;20424;-77
2022/02/13 04:00:59;;;;;;;;;;;;;;;-1.10;71.76;96923.09;4984122;28;20049;-77
2022/02/13 04:03:26;;;;;;;;;;;;;;;-1.12;69.98;96919.84;4983402;28;19959;-77
2022/02/13 04:05:54;;;;;;;;;;;;;;;-1.14;72.22;96937.19;4982377;28;19949;-77
2022/02/13 04:08:23;;;;;;;;;;;;;;;-1.16;71.50;96929.56;4988842;28;19959;-77
2022/02/13 04:10:49;;;;;;;;;;;;;;;-1.16;72.55;96932.16;4983624;28;19968;-77
2022/02/13 04:13:15;;;;;;;;;;;;;;;-1.14;73.11;96937.19;4984697;28;19968;-77
2022/02/13 04:15:41;;;;;;;;;;;;;;;-1.15;71.79;96925.28;4979775;28;20457;-77
2022/02/13 04:18:14;;;;;;;;;;;;;;;-1.15;71.44;96931.22;4983417;28;19951;-77
2022/02/13 04:20:41;;;;;;;;;;;;;;;-1.12;71.57;96928.38;4988767;28;20438;-77
2022/02/13 04:23:07;;;;;;;;;;;;;;;-1.10;70.98;96928.25;4986278;28;19965;-77
2022/02/13 04:25:32;;;;;;;;;;;;;;;-1.07;70.71;96933.94;4982380;28;19956;-77
2022/02/13 04:27:58;;;;;;;;;;;;;;;-1.08;71.48;96927.16;4982961;28;19960;-77
2022/02/13 04:30:24;;;;;;;;;;;;;;;-1.08;71.60;96929.72;4981752;28;20006;-77
2022/02/13 04:32:50;;;;;;;;;;;;;;;-1.08;71.25;96924.59;4982842;28;20018;-77
2022/02/13 04:35:16;;;;;;;;;;;;;;;-1.07;71.16;96926.22;4988100;28;19951;-77
2022/02/13 04:37:42;;;;;;;;;;;;;;;-1.04;70.75;96920.81;4980582;28;20402;-77
2022/02/13 04:40:08;;;;;;;;;;;;;;;-1.03;70.89;96925.00;4986032;28;19959;-77
2022/02/13 04:42:34;;;;;;;;;;;;;;;-1.02;70.44;96913.75;4953227;28;19959;-78
2022/02/13 04:45:00;;;;;;;;;;;;;;;-1.02;70.19;96916.34;4978464;28;20304;-77
2022/02/13 04:47:26;;;;;;;;;;;;;;;-1.01;70.38;96914.56;4981936;28;19954;-77
2022/02/13 04:49:52;;;;;;;;;;;;;;;-1.05;70.50;96924.34;4984611;28;19960;-77
2022/02/13 04:52:18;;;;;;;;;;;;;;;-1.04;70.39;96920.81;4983635;28;19995;-77
2022/02/13 04:54:43;;;;;;;;;;;;;;;-1.07;70.28;96918.50;4986819;28;20016;-77
2022/02/13 04:57:09;;;;;;;;;;;;;;;-1.07;70.39;96915.09;4964649;28;19955;-76
2022/02/13 04:59:37;;;;;;;;;;;;;;;-1.09;70.29;96917.81;4981086;28;19967;-77
2022/02/13 05:02:03;;;;;;;;;;;;;;;-1.10;70.48;96915.38;4990125;28;19960;-77
2022/02/13 05:04:30;;;;;;;;;;;;;;;-1.10;70.40;96912.81;4991387;28;19957;-79
2022/02/13 05:06:56;;;;;;;;;;;;;;;-1.11;70.57;96914.56;4989244;28;20313;-77
2022/02/13 05:09:21;;;;;;;;;;;;;;;-1.12;70.11;96909.53;4988763;28;20000;-76
2022/02/13 05:11:48;;;;;;;;;;;;;;;-1.15;70.76;96902.91;4981436;28;20490;-76
2022/02/13 05:14:14;;;;;;;;;;;;;;;-1.15;70.77;96905.50;4990120;28;19984;-77
2022/02/13 05:16:40;;;;;;;;;;;;;;;-1.18;70.62;96910.88;4971835;28;19978;-76
2022/02/13 05:19:07;;;;;;;;;;;;;;;-1.20;71.09;96901.69;4987131;28;19959;-77
2022/02/13 05:21:33;;;;;;;;;;;;;;;-1.25;70.56;96904.66;4984941;28;19951;-77
2022/02/13 05:23:59;;;;;;;;;;;;;;;-1.26;70.94;96905.59;4985614;28;19990;-77
2022/02/13 05:26:25;;;;;;;;;;;;;;;-1.31;71.32;96907.75;4987399;28;20451;-77
2022/02/13 05:28:54;;;;;;;;;;;;;;;-1.32;70.78;96898.41;4987731;28;20381;-77
2022/02/13 05:31:20;;;;;;;;;;;;;;;-1.34;71.44;96903.69;4991411;28;19957;-77
2022/02/13 05:33:46;;;;;;;;;;;;;;;-1.36;71.57;96897.06;4981853;28;19977;-77
2022/02/13 05:36:12;;;;;;;;;;;;;;;-1.38;71.31;96899.75;4970433;28;20345;-77
2022/02/13 05:38:38;;;;;;;;;;;;;;;-1.37;71.67;96895.41;4989663;28;19996;-77
2022/02/13 05:41:03;;;;;;;;;;;;;;;-1.36;71.63;96897.06;4989012;28;20336;-77
2022/02/13 05:43:29;;;;;;;;;;;;;;;-1.37;71.53;96892.84;4986820;28;19997;-77
2022/02/13 05:45:55;;;;;;;;;;;;;;;-1.38;71.52;96891.22;4988076;28;19968;-77
2022/02/13 05:48:24;;;;;;;;;;;;;;;-1.36;71.52;96895.28;4989741;28;19961;-77
2022/02/13 05:50:51;;;;;;;;;;;;;;;-1.38;71.16;96892.03;4987724;28;19957;-77
2022/02/13 05:53:17;;;;;;;;;;;;;;;-1.38;72.15;96888.66;4981139;28;20323;-77
2022/02/13 05:55:43;;;;;;;;;;;;;;;-1.40;71.73;96893.94;4990701;28;19971;-77
2022/02/13 05:58:08;;;;;;;;;;;;;;;-1.41;71.92;96887.13;4987229;28;19962;-77
2022/02/13 06:00:34;;;;;;;;;;;;;;;-1.41;71.81;96887.13;4980622;28;19960;-77
2022/02/13 06:03:00;;;;;;;;;;;;;;;-1.41;71.68;96876.03;4991454;28;19964;-77
2022/02/13 06:05:26;;;;;;;;;;;;;;;-1.39;71.79;96884.44;4982493;28;19956;-76
2022/02/13 06:07:52;;;;;;;;;;;;;;;-1.39;72.87;96887.00;4985572;28;20421;-76
2022/02/13 06:10:18;;;;;;;;;;;;;;;-1.38;72.58;96884.31;4989202;28;20008;-77
2022/02/13 06:12:44;;;;;;;;;;;;;;;-1.38;72.46;96888.66;4970714;28;19965;-77
2022/02/13 06:15:10;;;;;;;;;;;;;;;-1.38;72.49;96875.78;4980500;28;20006;-77
2022/02/13 06:17:36;;;;;;;;;;;;;;;-1.36;72.17;96874.72;4986932;28;19961;-77
2022/02/13 06:20:03;;;;;;;;;;;;;;;-1.37;72.21;96875.63;4989114;28;19956;-77
2022/02/13 06:22:29;;;;;;;;;;;;;;;-1.35;72.23;96871.19;4990005;28;20427;-77
2022/02/13 06:24:55;;;;;;;;;;;;;;;-1.34;72.09;96869.44;4975528;28;19961;-77
2022/02/13 06:27:21;;;;;;;;;;;;;;;-1.34;72.57;96875.38;4983419;28;20043;-77
2022/02/13 06:29:48;;;;;;;;;;;;;;;-1.33;73.13;96866.72;4986602;28;20056;-77
2022/02/13 06:32:13;;;;;;;;;;;;;;;-1.30;72.74;96868.19;4989081;28;19982;-77
2022/02/13 06:34:39;;;;;;;;;;;;;;;-1.28;72.83;96867.16;4986839;28;20494;-77
2022/02/13 06:37:05;;;;;;;;;;;;;;;-1.29;72.99;96868.06;4983652;28;19981;-76
2022/02/13 06:39:31;;;;;;;;;;;;;;;-1.28;73.04;96863.72;4985799;28;19960;-77
2022/02/13 06:41:57;;;;;;;;;;;;;;;-1.28;72.88;96861.16;4992996;28;19990;-78
2022/02/13 06:44:23;;;;;;;;;;;;;;;-1.29;73.02;96855.22;4983767;28;19963;-77
2022/02/13 06:46:49;;;;;;;;;;;;;;;-1.27;73.20;96861.03;4979174;28;19982;-77
2022/02/13 06:49:15;;;;;;;;;;;;;;;-1.25;73.15;96860.91;4984253;28;19957;-77
2022/02/13 06:51:40;;;;;;;;;;;;;;;-1.21;72.93;96851.97;4968438;28;19953;-77
2022/02/13 06:54:06;;;;;;;;;;;;;;;-1.17;73.36;96855.09;4984762;28;19969;-77
2022/02/13 06:56:32;;;;;;;;;;;;;;;-1.14;74.00;96857.41;4983886;28;19957;-77
2022/02/13 06:58:58;;;;;;;;;;;;;;;-1.10;73.78;96848.47;4987941;28;20050;-77
2022/02/13 07:01:24;;;;;;;;;;;;;;;-1.06;74.61;96854.97;4984840;28;20428;-77
2022/02/13 07:03:50;;;;;;;;;;;;;;;-0.99;73.64;96852.66;4984525;28;20007;-77
2022/02/13 07:06:16;;;;;;;;;;;;;;;-0.93;73.30;96850.34;4983461;28;19955;-77
2022/02/13 07:08:41;;;;;;;;;;;;;;;-0.82;72.67;96850.22;4986286;28;20067;-76
2022/02/13 07:11:08;;;;;;;;;;;;;;;-0.55;72.12;96850.47;4984026;28;20370;-77
2022/02/13 07:13:34;;;;;;;;;;;;;;;-0.22;71.70;96839.66;4986018;28;19974;-76
2022/02/13 07:16:00;;;;;;;;;;;;;;;0.21;70.11;96827.16;4981559;28;19977;-77
2022/02/13 07:18:26;;;;;;;;;;;;;;;0.68;69.21;96826.22;4982870;28;19968;-77
2022/02/13 07:20:52;;;;;;;;;;;;;;;1.12;67.96;96815.97;4983616;28;19968;-78
2022/02/13 07:23:18;;;;;;;;;;;;;;;1.41;66.92;96793.25;4984009;28;20426;-77
2022/02/13 07:25:44;;;;;;;;;;;;;;;1.79;65.91;96780.03;4988251;28;19955;-77
2022/02/13 07:30:55;;;;;;;;;;;;;;;2.55;63.91;96760.25;4966965;28;19959;-77
2022/02/13 07:33:21;;;;;;;;;;;;;;;2.91;62.86;96742.63;4983370;28;20465;-77
2022/02/13 07:35:46;;;;;;;;;;;;;;;3.20;62.17;96738.72;4987422;28;19956;-78
2022/02/13 07:38:12;;;;;;;;;;;;;;;3.42;61.54;96730.25;4983530;28;19960;-78
2022/02/13 07:40:38;;;;;;;;;;;;;;;3.77;60.97;96727.41;4983195;28;20464;-78
2022/02/13 07:43:04;;;;;;;;;;;;;;;3.95;59.68;96712.41;4991769;28;20061;-78
2022/02/13 07:45:30;;;;;;;;;;;;;;;3.90;59.60;96719.06;4985396;28;19958;-78
2022/02/13 07:47:56;;;;;;;;;;;;;;;3.94;60.10;96725.53;4979342;28;19961;-78
2022/02/13 07:50:22;;;;;;;;;;;;;;;4.12;60.37;96728.72;4986246;28;19959;-76
2022/02/13 07:52:48;;;;;;;;;;;;;;;4.23;58.99;96710.13;4989635;28;19975;-77
2022/02/13 07:55:14;;;;;;;;;;;;;;;4.28;58.96;96712.22;4984180;28;19988;-77
2022/02/13 07:57:42;;;;;;;;;;;;;;;4.45;58.11;96699.94;4982771;28;19968;-76
2022/02/13 08:00:09;;;;;;;;;;;;;;;4.58;58.73;96705.38;4979836;28;19960;-77
2022/02/13 08:02:36;;;;;;;;;;;;;;;4.70;58.93;96695.38;4987198;28;19956;-76
2022/02/13 08:05:02;;;;;;;;;;;;;;;4.79;57.96;96694.34;4984320;28;19951;-76
2022/02/13 08:07:28;;;;;;;;;;;;;;;4.78;56.90;96679.72;4986762;28;19973;-76
2022/02/13 08:09:54;;;;;;;;;;;;;;;4.79;57.21;96678.75;4980615;28;19957;-76
2022/02/13 08:12:20;;;;;;;;;;;;;;;4.70;57.31;96684.97;4979455;28;20018;-76
2022/02/13 08:14:46;;;;;;;;;;;;;;;4.71;57.77;96689.22;4980842;28;20433;-76
2022/02/13 08:17:12;;;;;;;;;;;;;;;4.72;57.53;96698.59;4982538;28;20013;-76
2022/02/13 08:19:38;;;;;;;;;;;;;;;4.82;57.11;96699.19;4971705;28;20454;-76
2022/02/13 08:22:04;;;;;;;;;;;;;;;5.04;58.05;96704.50;4980785;28;19951;-76
2022/02/13 08:24:30;;;;;;;;;;;;;;;5.22;57.50;96699.78;4979325;28;19957;-77
2022/02/13 08:26:56;;;;;;;;;;;;;;;5.43;56.26;96688.69;4987949;28;19971;-76
2022/02/13 08:29:22;;;;;;;;;;;;;;;5.63;56.03;96688.97;4984640;28;19957;-76
2022/02/13 08:31:48;;;;;;;;;;;;;;;5.87;56.60;96705.28;4983370;28;20544;-76
2022/02/13 08:34:14;;;;;;;;;;;;;;;6.13;56.28;96704.00;4981527;28;20108;-76
2022/02/13 08:36:39;;;;;;;;;;;;;;;6.26;54.87;96712.78;4984744;28;19953;-76
2022/02/13 08:39:08;;;;;;;;;;;;;;;6.25;55.10;96707.75;4982649;28;20048;-76
2022/02/13 08:41:34;;;;;;;;;;;;;;;6.15;54.97;96710.63;4989280;28;19960;-75
2022/02/13 08:44:00;;;;;;;;;;;;;;;6.11;53.49;96709.41;4988012;28;19967;-76
2022/02/13 08:46:26;;;;;;;;;;;;;;;6.02;55.16;96713.88;4987497;28;19971;-75
2022/02/13 08:48:52;;;;;;;;;;;;;;;5.99;54.62;96708.25;4993029;28;19963;-75
2022/02/13 08:51:18;;;;;;;;;;;;;;;6.01;55.39;96716.69;4985469;28;20417;-76
2022/02/13 08:53:43;;;;;;;;;;;;;;;6.09;55.39;96712.19;4985803;28;19979;-76
2022/02/13 08:56:09;;;;;;;;;;;;;;;6.12;54.64;96703.19;4994077;28;19984;-76
2022/02/13 08:58:35;;;;;;;;;;;;;;;6.09;55.59;96706.97;4987229;28;19970;-76
2022/02/13 09:01:01;;;;;;;;;;;;;;;6.02;55.24;96713.88;4987199;28;20046;-76
2022/02/13 09:03:27;;;;;;;;;;;;;;;6.04;54.62;96706.72;4954749;28;19963;-76
2022/02/13 09:05:53;;;;;;;;;;;;;;;6.02;55.22;96708.69;4982233;28;19959;-76
2022/02/13 09:08:19;;;;;;;;;;;;;;;6.03;55.14;96705.09;4983561;28;19965;-76
2022/02/13 09:10:45;;;;;;;;;;;;;;;6.15;54.93;96697.63;4975028;28;19963;-76
2022/02/13 09:13:12;;;;;;;;;;;;;;;6.27;56.00;96705.75;4989590;28;19962;-75
2022/02/13 09:15:38;;;;;;;;;;;;;;;6.40;55.87;96707.69;4986580;28;19986;-75
2022/02/13 09:18:09;;;;;;;;;;;;;;;6.34;54.82;96698.84;4985512;28;19953;-76
2022/02/13 09:20:34;;;;;;;;;;;;;;;6.28;54.79;96697.78;4991190;28;20325;-76
2022/02/13 09:23:00;;;;;;;;;;;;;;;6.27;56.26;96700.56;4983755;28;19965;-76
2022/02/13 09:25:26;;;;;;;;;;;;;;;6.25;56.26;96700.72;4987358;28;19959;-76
2022/02/13 09:27:52;;;;;;;;;;;;;;;6.33;55.89;96693.81;4988669;28;19968;-76
2022/02/13 09:30:18;;;;;;;;;;;;;;;6.36;55.40;96691.63;4985683;28;19965;-76
2022/02/13 09:32:44;;;;;;;;;;;;;;;6.32;55.22;96700.00;4993473;28;19992;-76
2022/02/13 09:35:10;;;;;;;;;;;;;;;6.10;56.41;96705.19;4987447;28;19979;-75
2022/02/13 09:37:36;;;;;;;;;;;;;;;6.18;57.00;96694.66;4988069;28;20416;-76
2022/02/13 09:40:03;;;;;;;;;;;;;;;6.20;56.98;96695.28;4982804;28;20314;-76
2022/02/13 09:42:29;;;;;;;;;;;;;;;6.21;57.46;96698.69;4987016;28;19958;-76
2022/02/13 09:44:55;;;;;;;;;;;;;;;6.18;56.82;96693.84;4987835;28;20004;-76
2022/02/13 09:47:24;;;;;;;;;;;;;;;6.07;57.62;96688.13;4985145;28;20335;-76
2022/02/13 09:49:50;;;;;;;;;;;;;;;6.03;57.31;96680.88;4983218;28;19955;-77
2022/02/13 09:52:16;;;;;;;;;;;;;;;6.08;57.49;96675.91;4972193;28;19967;-76
2022/02/13 09:54:42;;;;;;;;;;;;;;;6.22;57.19;96671.66;4985264;28;19997;-76
2022/02/13 09:59:56;;;;;;;;;;;;;;;6.57;57.62;96667.38;4973132;28;19983;-76
2022/02/13 10:02:32;;;;;;;;;;;;;;;6.73;57.29;96662.91;4982854;28;19965;-76
2022/02/13 10:04:58;;;;;;;;;;;;;;;6.90;57.45;96659.03;4975123;28;19965;-76
2022/02/13 10:07:24;;;;;;;;;;;;;;;7.04;56.27;96645.09;4987925;28;20389;-76
2022/02/13 10:09:56;;;;;;;;;;;;;;;7.02;56.08;96641.88;4986059;28;20037;-76
2022/02/13 10:12:38;;;;;;;;;;;;;;;7.03;56.64;96642.69;4990925;28;19959;-76
2022/02/13 10:15:23;;;;;;;;;;;;;;;7.22;56.12;96639.38;4990073;28;19977;-77
2022/02/13 10:17:57;;;;;;;;;;;;;;;7.49;56.42;96637.72;4987176;28;19960;-77
2022/02/13 10:20:27;;;;;;;;;;;;;;;7.70;55.08;96620.34;4985944;28;19956;-76
2022/02/13 10:22:53;;;;;;;;;;;;;;;7.80;56.07;96631.25;4990224;28;19964;-76
2022/02/13 10:25:19;;;;;;;;;;;;;;;7.97;55.06;96625.69;4990154;28;19964;-76
2022/02/13 10:27:46;;;;;;;;;;;;;;;8.00;55.33;96615.66;4983737;28;19966;-76
2022/02/13 10:30:11;;;;;;;;;;;;;;;7.93;53.65;96613.00;4981563;28;19962;-76
2022/02/13 10:32:39;;;;;;;;;;;;;;;7.87;55.50;96624.25;4985951;28;19997;-76
2022/02/13 10:35:05;;;;;;;;;;;;;;;7.87;54.71;96611.19;4985058;28;19977;-76
2022/02/13 10:37:35;;;;;;;;;;;;;;;7.95;55.78;96619.84;4988137;28;20412;-77
2022/02/13 10:40:03;;;;;;;;;;;;;;;8.01;55.73;96608.63;4984251;28;19958;-77
2022/02/13 10:42:31;;;;;;;;;;;;;;;8.07;54.99;96600.78;4987679;28;19958;-76
2022/02/13 10:45:16;;;;;;;;;;;;;;;8.20;55.43;96593.97;4981375;28;19965;-77
2022/02/13 10:47:42;;;;;;;;;;;;;;;8.31;54.42;96588.94;4996827;28;19955;-76
2022/02/13 10:50:08;;;;;;;;;;;;;;;8.22;54.33;96582.31;4993770;28;19955;-77
2022/02/13 10:52:35;;;;;;;;;;;;;;;8.26;54.91;96583.53;4980726;28;19962;-77
2022/02/13 10:55:03;;;;;;;;;;;;;;;8.37;55.81;96583.94;4983916;28;19984;-77
2022/02/13 10:57:29;;;;;;;;;;;;;;;8.57;55.05;96576.94;4990707;28;20312;-76
2022/02/13 10:59:55;;;;;;;;;;;;;;;8.61;54.24;96559.03;4987318;28;19971;-77
2022/02/13 11:02:23;;;;;;;;;;;;;;;8.61;54.04;96553.81;4987840;28;19994;-76
2022/02/13 11:04:49;;;;;;;;;;;;;;;8.67;55.17;96553.81;4981737;28;19971;-77
2022/02/13 11:07:15;;;;;;;;;;;;;;;8.88;55.67;96551.97;4984184;28;19961;-76
2022/02/13 11:09:42;;;;;;;;;;;;;;;9.16;54.16;96548.31;4987084;28;19963;-77
2022/02/13 11:12:08;;;;;;;;;;;;;;;9.40;52.01;96523.25;4983876;28;19970;-77
2022/02/13 11:14:47;;;;;;;;;;;;;;;9.51;51.77;96523.41;4983444;28;19978;-77
2022/02/13 11:17:32;;;;;;;;;;;;;;;9.51;52.16;96525.19;4982336;28;19964;-77
2022/02/13 11:20:01;;;;;;;;;;;;;;;9.58;52.68;96518.13;4980074;28;19956;-78
2022/02/13 11:22:31;;;;;;;;;;;;;;;9.79;52.89;96517.00;4978029;28;19951;-77
2022/02/13 11:24:57;;;;;;;;;;;;;;;9.80;50.67;96494.22;4987810;28;20032;-77
2022/02/13 11:27:25;;;;;;;;;;;;;;;9.75;51.13;96489.63;4989551;28;20057;-77
2022/02/13 11:29:53;;;;;;;;;;;;;;;9.79;51.18;96493.44;4983516;28;19962;-77
2022/02/13 11:32:36;;;;;;;;;;;;;;;9.96;51.39;96488.47;4964607;28;19955;-76
2022/02/13 11:35:04;;;;;;;;;;;;;;;10.14;50.50;96472.00;4979445;28;20583;-77
2022/02/13 11:37:43;;;;;;;;;;;;;;;10.35;50.73;96479.53;4984881;28;20068;-77
2022/02/13 11:40:28;;;;;;;;;;;;;;;10.50;50.41;96468.72;4946615;28;19971;-76
2022/02/13 11:42:54;;;;;;;;;;;;;;;10.71;49.65;96475.34;4988142;28;19953;-76
2022/02/13 11:45:20;;;;;;;;;;;;;;;10.82;49.37;96463.34;4985340;28;19956;-76
2022/02/13 11:47:46;;;;;;;;;;;;;;;10.98;50.11;96469.81;4984150;28;19955;-76
2022/02/13 11:50:15;;;;;;;;;;;;;;;11.12;45.23;96458.13;4985090;28;20023;-76
2022/02/13 11:52:54;;;;;;;;;;;;;;;11.24;46.47;96487.06;4981724;28;19968;-76
2022/02/13 11:55:21;;;;;;;;;;;;;;;11.16;46.45;96516.25;4981057;28;19981;-76
2022/02/13 11:57:56;;;;;;;;;;;;;;;10.85;45.00;96501.44;4988177;28;19963;-77
2022/02/13 12:00:39;;;;;;;;;;;;;;;10.90;45.58;96505.03;4987022;28;19958;-76
2022/02/13 12:03:12;;;;;;;;;;;;;;;10.89;45.49;96494.75;4985733;28;19963;-76
2022/02/13 12:05:38;;;;;;;;;;;;;;;10.87;45.29;96491.53;4983217;28;20067;-76
2022/02/13 12:08:04;;;;;;;;;;;;;;;10.97;45.24;96492.63;4983963;28;19959;-76
2022/02/13 12:10:33;;;;;;;;;;;;;;;11.11;43.84;96485.41;4956758;28;20320;-76
2022/02/13 12:13:05;;;;;;;;;;;;;;;11.21;44.19;96479.63;4983970;28;20412;-76
2022/02/13 12:15:31;;;;;;;;;;;;;;;11.25;44.09;96464.25;4983581;28;19977;-76
2022/02/13 12:18:06;;;;;;;;;;;;;;;11.14;42.88;96471.84;4980214;28;19967;-76
2022/02/13 12:20:34;;;;;;;;;;;;;;;11.05;45.22;96456.63;4990162;28;20383;-76
2022/02/13 12:23:04;;;;;;;;;;;;;;;10.88;44.47;96456.41;4983815;28;19960;-77
2022/02/13 12:25:31;;;;;;;;;;;;;;;10.76;45.50;96454.50;4979213;28;19965;-76
2022/02/13 12:27:57;;;;;;;;;;;;;;;10.65;43.59;96450.00;4962808;28;19965;-76
2022/02/13 12:30:23;;;;;;;;;;;;;;;10.51;44.07;96443.28;4989801;28;19971;-76
2022/02/13 12:32:55;;;;;;;;;;;;;;;10.53;45.93;96434.16;4986215;28;19958;-77
2022/02/13 12:35:25;;;;;;;;;;;;;;;10.62;45.40;96434.69;4981466;28;19965;-76
2022/02/13 12:37:51;;;;;;;;;;;;;;;10.72;45.67;96431.56;4985837;28;20449;-76
2022/02/13 12:40:18;;;;;;;;;;;;;;;10.76;44.40;96433.53;4987708;28;20311;-76
2022/02/13 12:42:48;;;;;;;;;;;;;;;10.77;43.73;96422.03;4985587;28;19956;-76
2022/02/13 12:45:15;;;;;;;;;;;;;;;10.72;43.81;96421.88;4981882;28;19975;-76
2022/02/13 12:47:42;;;;;;;;;;;;;;;10.72;44.49;96424.50;4982986;28;19957;-76
2022/02/13 12:50:15;;;;;;;;;;;;;;;10.81;44.48;96417.13;4973477;28;19967;-78
2022/02/13 12:52:41;;;;;;;;;;;;;;;10.89;45.11;96414.19;4983761;28;19950;-76
2022/02/13 12:55:11;;;;;;;;;;;;;;;10.89;43.24;96414.19;4963615;28;19984;-76